createdAt,value
2023-10-01T00:00:42.116Z,6.10
2023-10-01T00:01:42.249Z,7.40
2023-10-01T00:02:42.104Z,4.60
2023-10-01T00:03:42.090Z,7.20
2023-10-01T00:04:42.107Z,6.80
2023-10-01T00:05:42.039Z,6.80
2023-10-01T00:06:42.054Z,7.80
2023-10-01T00:07:42.015Z,6.60
2023-10-01T00:08:42.059Z,6.80
2023-10-01T00:09:41.999Z,5.20
2023-10-01T00:10:41.996Z,5.70
2023-10-01T00:11:41.979Z,6.50
2023-10-01T00:12:41.980Z,4.60
2023-10-01T00:13:41.947Z,6.20
2023-10-01T00:14:41.962Z,7.80
2023-10-01T00:15:41.957Z,5.80
2023-10-01T00:16:42.003Z,5.40
2023-10-01T00:17:41.972Z,5.20
2023-10-01T00:18:41.907Z,6.40
2023-10-01T00:19:41.937Z,4.70
2023-10-01T00:20:41.873Z,6.20
2023-10-01T00:21:41.895Z,6.60
2023-10-01T00:22:41.841Z,6.40
2023-10-01T00:23:41.842Z,4.80
2023-10-01T00:24:41.818Z,5.60
2023-10-01T00:25:41.977Z,7.30
2023-10-01T00:26:41.798Z,5.20
2023-10-01T00:27:41.804Z,7.00
2023-10-01T00:28:41.776Z,6.00
2023-10-01T00:29:41.772Z,7.50
2023-10-01T00:30:41.753Z,5.90
2023-10-01T00:31:41.878Z,5.60
2023-10-01T00:32:41.901Z,5.50
2023-10-01T00:33:41.721Z,4.30
2023-10-01T00:34:41.708Z,5.50
2023-10-01T00:35:41.888Z,8.30
2023-10-01T00:36:41.695Z,5.90
2023-10-01T00:37:41.740Z,6.60
2023-10-01T00:38:41.671Z,6.00
2023-10-01T00:39:41.700Z,6.40
2023-10-01T00:40:41.677Z,5.40
2023-10-01T00:41:41.666Z,6.60
2023-10-01T00:42:41.643Z,5.10
2023-10-01T00:43:41.739Z,5.60
2023-10-01T00:44:41.785Z,6.30
2023-10-01T00:45:41.714Z,5.20
2023-10-01T00:46:41.812Z,5.00
2023-10-01T00:47:42.012Z,6.30
2023-10-01T00:48:41.693Z,6.00
2023-10-01T00:49:41.567Z,5.30
2023-10-01T00:50:41.540Z,6.30
2023-10-01T00:51:41.506Z,5.10
2023-10-01T00:52:41.520Z,4.80
2023-10-01T00:53:41.506Z,5.90
2023-10-01T00:54:41.488Z,6.30
2023-10-01T00:55:41.490Z,5.80
2023-10-01T00:56:41.465Z,4.80
2023-10-01T00:57:41.446Z,4.30
2023-10-01T00:58:41.484Z,5.80
2023-10-01T00:59:41.427Z,6.50
2023-10-01T01:00:41.406Z,4.70
2023-10-01T01:01:41.486Z,4.30
2023-10-01T01:02:41.502Z,5.40
2023-10-01T01:03:41.434Z,4.70
2023-10-01T01:04:41.426Z,5.30
2023-10-01T01:05:41.358Z,7.70
2023-10-01T01:06:41.347Z,6.70
2023-10-01T01:07:41.367Z,5.80
2023-10-01T01:08:41.304Z,6.70
2023-10-01T01:09:41.311Z,5.10
2023-10-01T01:10:41.311Z,5.40
2023-10-01T01:11:41.274Z,6.20
2023-10-01T01:12:41.278Z,6.30
2023-10-01T01:13:41.256Z,4.40
2023-10-01T01:14:41.271Z,6.80
2023-10-01T01:15:41.272Z,5.90
2023-10-01T01:16:41.309Z,5.80
2023-10-01T01:17:41.236Z,5.30
2023-10-01T01:18:41.185Z,6.10
2023-10-01T01:19:41.195Z,6.10
2023-10-01T01:20:41.165Z,5.30
2023-10-01T01:21:41.214Z,5.40
2023-10-01T01:22:41.141Z,3.70
2023-10-01T01:23:41.142Z,5.50
2023-10-01T01:24:41.119Z,4.90
2023-10-01T01:25:41.114Z,4.30
2023-10-01T01:26:41.109Z,4.80
2023-10-01T01:27:41.107Z,4.60
2023-10-01T01:28:41.087Z,4.40
2023-10-01T01:29:41.082Z,4.90
2023-10-01T01:30:41.046Z,6.20
2023-10-01T01:31:41.144Z,4.90
2023-10-01T01:32:41.035Z,6.40
2023-10-01T01:33:41.051Z,5.00
2023-10-01T01:34:41.001Z,5.30
2023-10-01T01:35:40.992Z,5.00
2023-10-01T01:36:40.996Z,6.30
2023-10-01T01:37:41.001Z,6.20
2023-10-01T01:38:40.961Z,5.40
2023-10-01T01:39:40.948Z,5.90
2023-10-01T01:40:40.949Z,5.40
2023-10-01T01:41:40.933Z,7.90
2023-10-01T01:42:40.924Z,5.20
2023-10-01T01:43:40.950Z,5.30
2023-10-01T01:44:40.916Z,8.40
2023-10-01T01:45:40.883Z,5.20
2023-10-01T01:46:40.949Z,8.50
2023-10-01T01:47:40.928Z,6.10
2023-10-01T01:48:40.849Z,5.60
2023-10-01T01:49:40.824Z,6.30
2023-10-01T01:50:40.850Z,6.50
2023-10-01T01:51:40.828Z,6.40
2023-10-01T01:52:40.811Z,8.30
2023-10-01T01:53:40.790Z,6.80
2023-10-01T01:54:40.781Z,8.20
2023-10-01T01:55:40.768Z,8.60
2023-10-01T01:56:40.772Z,12.40
2023-10-01T01:57:40.749Z,9.30
2023-10-01T01:58:40.729Z,7.10
2023-10-01T01:59:40.739Z,7.80
2023-10-01T02:00:40.724Z,12.30
2023-10-01T02:01:40.843Z,8.60
2023-10-01T02:02:40.772Z,10.50
2023-10-01T02:03:40.715Z,8.90
2023-10-01T02:04:40.664Z,9.80
2023-10-01T02:05:40.714Z,10.40
2023-10-01T02:06:40.655Z,11.60
2023-10-01T02:07:40.663Z,13.00
2023-10-01T02:08:40.608Z,10.20
2023-10-01T02:09:40.601Z,9.40
2023-10-01T02:10:40.595Z,12.90
2023-10-01T02:11:40.587Z,10.30
2023-10-01T02:12:40.613Z,14.70
2023-10-01T02:13:40.567Z,12.20
2023-10-01T02:14:40.564Z,11.50
2023-10-01T02:15:40.554Z,11.50
2023-10-01T02:16:40.567Z,12.00
2023-10-01T02:17:40.573Z,13.10
2023-10-01T02:18:40.507Z,10.80
2023-10-01T02:19:40.495Z,10.50
2023-10-01T02:20:40.471Z,13.40
2023-10-01T02:21:40.482Z,11.40
2023-10-01T02:22:40.451Z,9.70
2023-10-01T02:23:40.468Z,9.90
2023-10-01T02:24:40.499Z,7.80
2023-10-01T02:25:40.431Z,12.30
2023-10-01T02:26:40.401Z,8.00
2023-10-01T02:27:40.400Z,8.40
2023-10-01T02:28:40.400Z,8.10
2023-10-01T02:29:40.388Z,7.40
2023-10-01T02:30:40.456Z,7.20
2023-10-01T02:31:40.473Z,8.80
2023-10-01T02:32:40.391Z,7.90
2023-10-01T02:33:40.333Z,7.60
2023-10-01T02:34:40.316Z,6.70
2023-10-01T02:35:40.313Z,10.50
2023-10-01T02:36:40.316Z,8.40
2023-10-01T02:37:40.329Z,7.10
2023-10-01T02:38:40.270Z,6.60
2023-10-01T02:39:40.269Z,9.30
2023-10-01T02:40:40.267Z,8.80
2023-10-01T02:41:40.274Z,7.60
2023-10-01T02:42:40.245Z,6.50
2023-10-01T02:43:40.228Z,6.40
2023-10-01T02:44:40.312Z,6.40
2023-10-01T02:45:40.212Z,6.60
2023-10-01T02:46:40.263Z,6.50
2023-10-01T02:47:40.302Z,6.60
2023-10-01T02:48:40.169Z,6.00
2023-10-01T02:49:40.154Z,6.00
2023-10-01T02:50:40.149Z,8.80
2023-10-01T02:51:40.134Z,8.80
2023-10-01T02:52:40.148Z,7.80
2023-10-01T02:53:40.134Z,5.80
2023-10-01T02:54:40.094Z,5.20
2023-10-01T02:55:40.109Z,7.50
2023-10-01T02:56:40.083Z,6.80
2023-10-01T02:57:40.058Z,7.10
2023-10-01T02:58:40.046Z,8.00
2023-10-01T02:59:40.054Z,5.70
2023-10-01T03:00:40.056Z,6.40
2023-10-01T03:01:40.221Z,5.90
2023-10-01T03:02:40.207Z,7.10
2023-10-01T03:03:40.104Z,6.50
2023-10-01T03:04:40.012Z,6.10
2023-10-01T03:05:39.980Z,6.50
2023-10-01T03:06:39.969Z,7.80
2023-10-01T03:07:39.989Z,5.20
2023-10-01T03:08:39.937Z,6.90
2023-10-01T03:09:39.933Z,7.20
2023-10-01T03:10:39.949Z,8.40
2023-10-01T03:11:39.919Z,6.20
2023-10-01T03:12:39.896Z,6.60
2023-10-01T03:13:39.881Z,6.60
2023-10-01T03:14:39.881Z,6.20
2023-10-01T03:15:39.855Z,6.40
2023-10-01T03:16:39.911Z,6.30
2023-10-01T03:17:39.861Z,5.10
2023-10-01T03:18:39.828Z,6.10
2023-10-01T03:19:39.836Z,5.70
2023-10-01T03:20:39.943Z,6.10
2023-10-01T03:21:39.821Z,6.40
2023-10-01T03:22:39.779Z,6.90
2023-10-01T03:23:39.765Z,4.40
2023-10-01T03:24:39.754Z,7.30
2023-10-01T03:25:39.735Z,6.00
2023-10-01T03:26:39.740Z,4.90
2023-10-01T03:27:39.726Z,6.10
2023-10-01T03:28:39.712Z,6.00
2023-10-01T03:29:39.687Z,5.40
2023-10-01T03:30:39.724Z,7.20
2023-10-01T03:31:39.735Z,4.90
2023-10-01T03:32:39.725Z,7.80
2023-10-01T03:33:39.991Z,6.10
2023-10-01T03:34:39.634Z,6.60
2023-10-01T03:35:41.470Z,6.40
2023-10-01T03:36:39.622Z,5.00
2023-10-01T03:37:40.276Z,5.20
2023-10-01T03:38:39.621Z,6.70
2023-10-01T03:39:39.578Z,6.80
2023-10-01T03:40:39.566Z,5.00
2023-10-01T03:41:39.549Z,5.70
2023-10-01T03:42:39.563Z,6.50
2023-10-01T03:43:39.537Z,5.20
2023-10-01T03:44:39.538Z,6.30
2023-10-01T03:45:39.539Z,6.70
2023-10-01T03:46:39.551Z,4.40
2023-10-01T03:47:39.512Z,5.40
2023-10-01T03:48:39.503Z,5.60
2023-10-01T03:49:39.463Z,5.40
2023-10-01T03:50:39.457Z,7.30
2023-10-01T03:51:39.490Z,7.90
2023-10-01T03:52:39.427Z,4.20
2023-10-01T03:53:39.410Z,5.70
2023-10-01T03:54:39.406Z,7.30
2023-10-01T03:55:39.402Z,5.30
2023-10-01T03:56:39.377Z,7.90
2023-10-01T03:57:39.426Z,6.40
2023-10-01T03:58:39.366Z,9.10
2023-10-01T03:59:39.356Z,9.30
2023-10-01T04:00:39.345Z,9.00
2023-10-01T04:01:39.384Z,9.40
2023-10-01T04:02:39.402Z,7.50
2023-10-01T04:03:39.321Z,14.20
2023-10-01T04:04:39.363Z,6.80
2023-10-01T04:05:39.309Z,13.70
2023-10-01T04:06:39.270Z,9.40
2023-10-01T04:07:39.271Z,10.60
2023-10-01T04:08:39.278Z,6.40
2023-10-01T04:09:39.233Z,14.10
2023-10-01T04:10:39.228Z,7.30
2023-10-01T04:11:39.231Z,8.10
2023-10-01T04:12:39.286Z,8.80
2023-10-01T04:13:39.546Z,7.40
2023-10-01T04:14:39.340Z,10.00
2023-10-01T04:15:39.168Z,8.40
2023-10-01T04:16:39.224Z,7.20
2023-10-01T04:17:39.166Z,7.80
2023-10-01T04:18:39.195Z,10.30
2023-10-01T04:19:39.408Z,8.90
2023-10-01T04:20:39.112Z,6.70
2023-10-01T04:21:39.108Z,7.40
2023-10-01T04:22:39.100Z,12.60
2023-10-01T04:23:39.084Z,9.40
2023-10-01T04:24:39.320Z,9.70
2023-10-01T04:25:39.059Z,7.30
2023-10-01T04:26:39.045Z,12.30
2023-10-01T04:27:39.036Z,11.80
2023-10-01T04:28:39.024Z,11.00
2023-10-01T04:29:39.001Z,15.70
2023-10-01T04:30:39.080Z,14.00
2023-10-01T04:31:38.988Z,9.10
2023-10-01T04:32:39.018Z,11.80
2023-10-01T04:33:38.960Z,6.80
2023-10-01T04:34:38.936Z,7.30
2023-10-01T04:35:38.991Z,9.40
2023-10-01T04:36:38.937Z,9.10
2023-10-01T04:37:38.918Z,8.90
2023-10-01T04:38:38.900Z,9.40
2023-10-01T04:39:38.947Z,9.90
2023-10-01T04:40:38.873Z,8.50
2023-10-01T04:41:38.883Z,11.70
2023-10-01T04:42:38.846Z,10.30
2023-10-01T04:43:38.860Z,10.00
2023-10-01T04:44:38.833Z,11.30
2023-10-01T04:45:38.824Z,7.70
2023-10-01T04:46:39.054Z,8.50
2023-10-01T04:47:38.837Z,8.50
2023-10-01T04:48:38.810Z,9.90
2023-10-01T04:49:40.390Z,7.70
2023-10-01T04:50:38.749Z,7.00
2023-10-01T04:51:38.777Z,6.60
2023-10-01T04:52:38.728Z,7.60
2023-10-01T04:53:38.727Z,5.80
2023-10-01T04:54:38.714Z,5.00
2023-10-01T04:55:38.753Z,4.90
2023-10-01T04:56:38.695Z,5.00
2023-10-01T04:57:38.703Z,7.30
2023-10-01T04:58:38.712Z,6.30
2023-10-01T04:59:38.664Z,5.10
2023-10-01T05:00:38.648Z,5.50
2023-10-01T05:01:38.702Z,4.50
2023-10-01T05:02:38.744Z,6.50
2023-10-01T05:03:38.632Z,5.40
2023-10-01T05:04:38.695Z,5.70
2023-10-01T05:05:38.613Z,5.70
2023-10-01T05:06:38.599Z,5.70
2023-10-01T05:07:38.562Z,5.20
2023-10-01T05:08:38.576Z,5.70
2023-10-01T05:09:38.555Z,6.60
2023-10-01T05:10:38.547Z,4.80
2023-10-01T05:11:38.540Z,4.00
2023-10-01T05:12:38.500Z,5.20
2023-10-01T05:13:38.588Z,4.90
2023-10-01T05:14:38.487Z,4.60
2023-10-01T05:15:38.467Z,7.30
2023-10-01T05:16:38.538Z,5.40
2023-10-01T05:17:38.505Z,5.70
2023-10-01T05:18:38.436Z,4.20
2023-10-01T05:19:41.103Z,3.90
2023-10-01T05:20:38.417Z,6.60
2023-10-01T05:21:38.391Z,4.30
2023-10-01T05:22:38.392Z,4.40
2023-10-01T05:23:38.386Z,4.70
2023-10-01T05:24:38.454Z,4.30
2023-10-01T05:25:38.362Z,4.80
2023-10-01T05:26:38.345Z,5.80
2023-10-01T05:27:38.326Z,5.00
2023-10-01T05:28:38.365Z,6.10
2023-10-01T05:29:38.344Z,4.90
2023-10-01T05:30:38.289Z,4.80
2023-10-01T05:31:38.406Z,4.30
2023-10-01T05:32:38.327Z,3.50
2023-10-01T05:33:38.283Z,3.70
2023-10-01T05:34:38.277Z,4.90
2023-10-01T05:35:38.539Z,4.40
2023-10-01T05:36:38.231Z,3.60
2023-10-01T05:37:38.335Z,4.50
2023-10-01T05:38:38.200Z,4.20
2023-10-01T05:39:38.189Z,4.20
2023-10-01T05:40:38.793Z,7.80
2023-10-01T05:41:38.171Z,3.90
2023-10-01T05:42:38.166Z,5.00
2023-10-01T05:43:38.214Z,5.10
2023-10-01T05:44:38.134Z,4.70
2023-10-01T05:45:38.469Z,4.70
2023-10-01T05:46:38.186Z,5.80
2023-10-01T05:47:38.137Z,4.90
2023-10-01T05:48:38.124Z,4.90
2023-10-01T05:49:38.074Z,4.50
2023-10-01T05:50:38.658Z,4.60
2023-10-01T05:51:38.102Z,4.60
2023-10-01T05:52:38.082Z,6.90
2023-10-01T05:53:38.047Z,6.70
2023-10-01T05:54:38.044Z,3.70
2023-10-01T05:55:38.154Z,8.00
2023-10-01T05:56:38.508Z,3.70
2023-10-01T05:57:37.998Z,4.20
2023-10-01T05:58:38.024Z,7.40
2023-10-01T05:59:37.955Z,6.30
2023-10-01T06:00:37.950Z,4.90
2023-10-01T06:01:38.063Z,5.20
2023-10-01T06:02:37.979Z,6.30
2023-10-01T06:03:37.950Z,4.60
2023-10-01T06:04:37.916Z,4.50
2023-10-01T06:05:37.923Z,5.30
2023-10-01T06:06:37.899Z,5.10
2023-10-01T06:07:37.925Z,5.20
2023-10-01T06:08:37.872Z,5.10
2023-10-01T06:09:37.904Z,4.90
2023-10-01T06:10:37.849Z,6.20
2023-10-01T06:11:37.843Z,6.90
2023-10-01T06:12:37.812Z,5.60
2023-10-01T06:13:37.932Z,6.40
2023-10-01T06:14:37.792Z,6.00
2023-10-01T06:15:37.799Z,4.40
2023-10-01T06:16:37.877Z,5.60
2023-10-01T06:17:37.879Z,6.60
2023-10-01T06:18:37.741Z,4.10
2023-10-01T06:19:37.934Z,7.20
2023-10-01T06:20:37.731Z,5.70
2023-10-01T06:21:39.901Z,8.10
2023-10-01T06:22:37.797Z,6.70
2023-10-01T06:23:37.729Z,6.20
2023-10-01T06:24:37.676Z,4.50
2023-10-01T06:25:37.743Z,7.40
2023-10-01T06:26:38.052Z,6.60
2023-10-01T06:27:37.683Z,8.00
2023-10-01T06:28:39.062Z,7.60
2023-10-01T06:29:37.638Z,6.70
2023-10-01T06:30:37.612Z,7.00
2023-10-01T06:31:37.699Z,7.80
2023-10-01T06:32:37.712Z,8.00
2023-10-01T06:33:37.659Z,6.60
2023-10-01T06:34:37.729Z,5.70
2023-10-01T06:35:37.723Z,7.40
2023-10-01T06:36:37.593Z,9.10
2023-10-01T06:37:37.556Z,8.60
2023-10-01T06:38:37.537Z,6.00
2023-10-01T06:39:37.510Z,9.30
2023-10-01T06:40:37.510Z,7.70
2023-10-01T06:41:37.483Z,7.50
2023-10-01T06:42:37.497Z,6.00
2023-10-01T06:43:37.500Z,7.30
2023-10-01T06:44:37.449Z,6.70
2023-10-01T06:45:37.460Z,7.60
2023-10-01T06:46:37.568Z,5.90
2023-10-01T06:47:37.446Z,6.00
2023-10-01T06:48:37.514Z,7.90
2023-10-01T06:49:37.454Z,5.20
2023-10-01T06:50:37.439Z,6.20
2023-10-01T06:51:37.377Z,5.60
2023-10-01T06:52:37.410Z,4.40
2023-10-01T06:53:37.378Z,5.70
2023-10-01T06:54:37.333Z,6.80
2023-10-01T06:55:37.363Z,5.30
2023-10-01T06:56:37.748Z,6.20
2023-10-01T06:57:37.300Z,6.40
2023-10-01T06:58:37.381Z,4.30
2023-10-01T06:59:37.309Z,3.90
2023-10-01T07:00:37.310Z,4.60
2023-10-01T07:01:37.336Z,6.30
2023-10-01T07:02:37.333Z,5.00
2023-10-01T07:03:37.333Z,5.20
2023-10-01T07:04:37.263Z,8.20
2023-10-01T07:05:37.269Z,4.80
2023-10-01T07:06:37.217Z,5.00
2023-10-01T07:07:37.278Z,5.60
2023-10-01T07:08:37.170Z,6.00
2023-10-01T07:09:37.198Z,3.70
2023-10-01T07:10:37.189Z,5.80
2023-10-01T07:11:37.184Z,5.30
2023-10-01T07:12:37.157Z,6.00
2023-10-01T07:13:37.158Z,5.20
2023-10-01T07:14:37.108Z,3.90
2023-10-01T07:15:37.222Z,5.00
2023-10-01T07:16:37.898Z,5.30
2023-10-01T07:17:37.101Z,5.80
2023-10-01T07:18:37.065Z,6.20
2023-10-01T07:19:37.100Z,5.80
2023-10-01T07:20:37.043Z,6.90
2023-10-01T07:21:37.024Z,6.20
2023-10-01T07:22:37.062Z,5.70
2023-10-01T07:23:36.997Z,6.10
2023-10-01T07:24:37.016Z,6.90
2023-10-01T07:25:37.013Z,7.70
2023-10-01T07:26:36.977Z,7.60
2023-10-01T07:27:36.948Z,7.30
2023-10-01T07:28:37.033Z,6.30
2023-10-01T07:29:36.940Z,8.80
2023-10-01T07:30:36.911Z,6.70
2023-10-01T07:31:37.104Z,6.50
2023-10-01T07:32:36.929Z,6.20
2023-10-01T07:33:36.921Z,5.40
2023-10-01T07:34:36.915Z,5.90
2023-10-01T07:35:36.867Z,8.50
2023-10-01T07:36:36.844Z,6.00
2023-10-01T07:37:36.891Z,6.70
2023-10-01T07:38:36.817Z,6.10
2023-10-01T07:39:36.843Z,6.20
2023-10-01T07:40:36.842Z,6.90
2023-10-01T07:41:36.808Z,8.10
2023-10-01T07:42:36.780Z,6.80
2023-10-01T07:43:36.799Z,6.80
2023-10-01T07:44:36.816Z,5.70
2023-10-01T07:45:36.751Z,9.40
2023-10-01T07:46:36.854Z,6.30
2023-10-01T07:47:36.846Z,6.00
2023-10-01T07:48:36.719Z,7.20
2023-10-01T07:49:36.715Z,7.30
2023-10-01T07:50:36.692Z,6.80
2023-10-01T07:51:36.685Z,5.80
2023-10-01T07:52:36.688Z,5.00
2023-10-01T07:53:36.650Z,5.40
2023-10-01T07:54:36.627Z,6.00
2023-10-01T07:55:36.929Z,7.70
2023-10-01T07:56:36.615Z,5.80
2023-10-01T07:57:36.590Z,6.70
2023-10-01T07:58:36.616Z,6.20
2023-10-01T07:59:36.636Z,5.70
2023-10-01T08:00:36.560Z,6.10
2023-10-01T08:01:36.817Z,6.40
2023-10-01T08:02:36.628Z,7.60
2023-10-01T08:03:36.564Z,6.20
2023-10-01T08:04:36.569Z,5.30
2023-10-01T08:05:36.596Z,7.30
2023-10-01T08:06:36.496Z,5.80
2023-10-01T08:07:36.521Z,7.20
2023-10-01T08:08:36.468Z,7.80
2023-10-01T08:09:36.457Z,7.50
2023-10-01T08:10:36.512Z,6.20
2023-10-01T08:11:36.489Z,7.20
2023-10-01T08:12:36.460Z,6.60
2023-10-01T08:13:36.468Z,5.90
2023-10-01T08:14:36.418Z,6.70
2023-10-01T08:15:36.377Z,5.60
2023-10-01T08:16:36.446Z,7.60
2023-10-01T08:17:36.433Z,8.00
2023-10-01T08:18:36.945Z,5.90
2023-10-01T08:19:36.396Z,6.30
2023-10-01T08:20:36.352Z,5.50
2023-10-01T08:21:36.753Z,6.50
2023-10-01T08:22:36.362Z,5.70
2023-10-01T08:23:36.304Z,7.30
2023-10-01T08:24:36.278Z,6.80
2023-10-01T08:25:36.328Z,8.70
2023-10-01T08:26:36.251Z,6.30
2023-10-01T08:27:36.308Z,5.50
2023-10-01T08:28:36.297Z,6.50
2023-10-01T08:29:36.247Z,4.90
2023-10-01T08:30:36.292Z,5.70
2023-10-01T08:31:36.330Z,8.50
2023-10-01T08:32:36.225Z,7.20
2023-10-01T08:33:36.172Z,5.40
2023-10-01T08:34:36.242Z,6.50
2023-10-01T08:35:36.187Z,5.50
2023-10-01T08:36:36.143Z,6.70
2023-10-01T08:37:36.161Z,7.20
2023-10-01T08:38:36.148Z,5.40
2023-10-01T08:39:36.122Z,5.40
2023-10-01T08:40:36.132Z,8.00
2023-10-01T08:41:36.095Z,6.80
2023-10-01T08:42:36.076Z,8.70
2023-10-01T08:43:36.115Z,6.30
2023-10-01T08:44:36.059Z,7.10
2023-10-01T08:45:36.028Z,7.90
2023-10-01T08:46:36.113Z,6.30
2023-10-01T08:47:36.501Z,8.70
2023-10-01T08:48:36.008Z,7.90
2023-10-01T08:49:36.042Z,10.20
2023-10-01T08:50:36.015Z,7.50
2023-10-01T08:51:35.960Z,8.80
2023-10-01T08:52:36.062Z,7.30
2023-10-01T08:53:35.945Z,6.20
2023-10-01T08:54:35.934Z,8.90
2023-10-01T08:55:37.666Z,7.80
2023-10-01T08:56:35.931Z,8.50
2023-10-01T08:57:35.893Z,10.80
2023-10-01T08:58:35.895Z,7.60
2023-10-01T08:59:35.868Z,10.10
2023-10-01T09:00:35.896Z,8.00
2023-10-01T09:01:35.919Z,7.10
2023-10-01T09:02:35.911Z,9.30
2023-10-01T09:03:36.131Z,7.90
2023-10-01T09:04:35.842Z,8.40
2023-10-01T09:05:35.830Z,9.50
2023-10-01T09:06:35.804Z,9.60
2023-10-01T09:07:35.838Z,9.20
2023-10-01T09:08:35.756Z,10.50
2023-10-01T09:09:35.767Z,8.60
2023-10-01T09:10:35.776Z,8.70
2023-10-01T09:11:35.729Z,9.60
2023-10-01T09:12:35.721Z,10.10
2023-10-01T09:13:35.726Z,9.70
2023-10-01T09:14:35.726Z,10.10
2023-10-01T09:15:35.702Z,11.70
2023-10-01T09:16:35.722Z,10.40
2023-10-01T09:17:35.756Z,7.30
2023-10-01T09:18:35.638Z,12.50
2023-10-01T09:19:35.692Z,8.40
2023-10-01T09:20:35.670Z,8.50
2023-10-01T09:21:35.654Z,9.60
2023-10-01T09:22:35.628Z,8.70
2023-10-01T09:23:35.584Z,9.20
2023-10-01T09:24:35.592Z,8.20
2023-10-01T09:25:35.657Z,7.90
2023-10-01T09:26:35.566Z,9.10
2023-10-01T09:27:35.543Z,8.40
2023-10-01T09:28:35.611Z,7.80
2023-10-01T09:29:35.521Z,10.00
2023-10-01T09:30:35.511Z,8.70
2023-10-01T09:31:35.582Z,9.90
2023-10-01T09:32:35.668Z,7.90
2023-10-01T09:33:35.548Z,13.00
2023-10-01T09:34:35.891Z,8.80
2023-10-01T09:35:35.467Z,8.20
2023-10-01T09:36:35.470Z,7.10
2023-10-01T09:37:35.731Z,9.60
2023-10-01T09:38:35.408Z,8.30
2023-10-01T09:39:35.398Z,9.90
2023-10-01T09:40:35.404Z,8.60
2023-10-01T09:41:35.401Z,10.00
2023-10-01T09:42:35.364Z,8.70
2023-10-01T09:43:35.557Z,9.40
2023-10-01T09:44:35.390Z,10.20
2023-10-01T09:45:35.330Z,10.30
2023-10-01T09:46:35.364Z,9.00
2023-10-01T09:47:35.394Z,9.90
2023-10-01T09:48:35.597Z,9.50
2023-10-01T09:49:35.339Z,9.90
2023-10-01T09:50:35.279Z,10.20
2023-10-01T09:51:35.267Z,8.00
2023-10-01T09:52:35.304Z,8.80
2023-10-01T09:53:35.243Z,8.70
2023-10-01T09:54:35.219Z,10.50
2023-10-01T09:55:35.308Z,8.60
2023-10-01T09:56:35.205Z,11.80
2023-10-01T09:57:35.188Z,9.00
2023-10-01T09:58:35.293Z,9.10
2023-10-01T09:59:35.189Z,10.00
2023-10-01T10:00:35.157Z,9.20
2023-10-01T10:01:35.819Z,9.70
2023-10-01T10:02:35.220Z,8.40
2023-10-01T10:03:35.129Z,10.10
2023-10-01T10:04:35.196Z,10.30
2023-10-01T10:05:35.150Z,8.50
2023-10-01T10:06:35.089Z,10.30
2023-10-01T10:07:35.140Z,10.50
2023-10-01T10:08:35.063Z,11.00
2023-10-01T10:09:35.058Z,9.30
2023-10-01T10:10:35.082Z,12.10
2023-10-01T10:11:35.048Z,9.80
2023-10-01T10:12:35.019Z,8.30
2023-10-01T10:13:35.336Z,9.60
2023-10-01T10:14:34.982Z,10.50
2023-10-01T10:15:34.978Z,12.50
2023-10-01T10:16:35.344Z,9.50
2023-10-01T10:17:35.014Z,9.40
2023-10-01T10:18:34.947Z,10.70
2023-10-01T10:19:34.946Z,10.20
2023-10-01T10:20:41.935Z,8.60
2023-10-01T10:21:37.214Z,8.40
2023-10-01T10:22:34.922Z,7.90
2023-10-01T10:23:35.125Z,10.00
2023-10-01T10:24:34.865Z,8.90
2023-10-01T10:25:35.020Z,14.20
2023-10-01T10:26:34.932Z,8.10
2023-10-01T10:27:34.876Z,10.60
2023-10-01T10:28:34.947Z,10.30
2023-10-01T10:29:34.827Z,7.70
2023-10-01T10:30:34.815Z,13.20
2023-10-01T10:31:35.324Z,9.60
2023-10-01T10:32:34.910Z,9.50
2023-10-01T10:33:34.790Z,7.40
2023-10-01T10:34:34.775Z,8.00
2023-10-01T10:35:34.753Z,10.00
2023-10-01T10:36:34.757Z,9.10
2023-10-01T10:37:34.759Z,11.30
2023-10-01T10:38:34.747Z,10.50
2023-10-01T10:39:34.728Z,11.70
2023-10-01T10:40:34.728Z,12.00
2023-10-01T10:41:34.671Z,8.70
2023-10-01T10:42:35.000Z,8.70
2023-10-01T10:43:34.687Z,13.50
2023-10-01T10:44:34.681Z,9.60
2023-10-01T10:45:34.705Z,9.70
2023-10-01T10:46:34.823Z,11.80
2023-10-01T10:47:34.640Z,11.20
2023-10-01T10:48:34.598Z,8.80
2023-10-01T10:49:34.600Z,10.40
2023-10-01T10:50:34.575Z,9.80
2023-10-01T10:51:34.557Z,10.00
2023-10-01T10:52:34.638Z,8.60
2023-10-01T10:53:34.547Z,11.10
2023-10-01T10:54:34.516Z,12.10
2023-10-01T10:55:34.628Z,11.90
2023-10-01T10:56:34.493Z,9.30
2023-10-01T10:57:34.490Z,10.90
2023-10-01T10:58:34.506Z,10.20
2023-10-01T10:59:34.471Z,8.30
2023-10-01T11:00:34.469Z,9.20
2023-10-01T11:01:34.551Z,11.80
2023-10-01T11:02:34.490Z,8.60
2023-10-01T11:03:34.443Z,10.40
2023-10-01T11:04:34.445Z,12.70
2023-10-01T11:05:34.449Z,9.70
2023-10-01T11:06:34.406Z,8.90
2023-10-01T11:07:34.449Z,8.90
2023-10-01T11:08:34.397Z,10.60
2023-10-01T11:09:34.502Z,12.90
2023-10-01T11:10:34.468Z,6.80
2023-10-01T11:11:42.324Z,12.00
2023-10-01T11:12:35.447Z,9.90
2023-10-01T11:13:34.442Z,8.10
2023-10-01T11:14:34.325Z,8.50
2023-10-01T11:15:34.734Z,7.00
2023-10-01T11:16:34.466Z,10.50
2023-10-01T11:17:34.289Z,10.20
2023-10-01T11:18:34.331Z,9.40
2023-10-01T11:19:34.262Z,9.20
2023-10-01T11:20:34.292Z,8.80
2023-10-01T11:21:34.463Z,10.50
2023-10-01T11:22:34.259Z,9.20
2023-10-01T11:23:34.356Z,8.00
2023-10-01T11:24:34.212Z,9.00
2023-10-01T11:25:34.274Z,12.90
2023-10-01T11:26:34.167Z,9.30
2023-10-01T11:27:34.180Z,9.90
2023-10-01T11:28:34.367Z,9.10
2023-10-01T11:29:34.134Z,10.60
2023-10-01T11:30:34.119Z,8.50
2023-10-01T11:31:34.198Z,9.20
2023-10-01T11:32:34.224Z,8.00
2023-10-01T11:33:34.128Z,10.00
2023-10-01T11:34:34.123Z,10.70
2023-10-01T11:35:34.425Z,9.90
2023-10-01T11:36:34.054Z,8.50
2023-10-01T11:37:34.113Z,10.10
2023-10-01T11:38:34.046Z,9.40
2023-10-01T11:39:34.015Z,11.60
2023-10-01T11:40:34.212Z,10.20
2023-10-01T11:41:33.996Z,11.80
2023-10-01T11:42:33.974Z,9.40
2023-10-01T11:43:34.530Z,7.80
2023-10-01T11:44:33.965Z,9.10
2023-10-01T11:45:34.050Z,7.00
2023-10-01T11:46:34.466Z,10.10
2023-10-01T11:47:33.971Z,8.00
2023-10-01T11:48:33.927Z,9.60
2023-10-01T11:49:33.926Z,9.20
2023-10-01T11:50:33.888Z,6.90
2023-10-01T11:51:33.979Z,8.30
2023-10-01T11:52:33.997Z,11.00
2023-10-01T11:53:33.844Z,9.80
2023-10-01T11:54:33.841Z,8.20
2023-10-01T11:55:34.025Z,8.90
2023-10-01T11:56:33.836Z,10.50
2023-10-01T11:57:33.828Z,10.50
2023-10-01T11:58:33.809Z,9.20
2023-10-01T11:59:33.784Z,9.50
2023-10-01T12:00:33.764Z,8.80
2023-10-01T12:01:33.902Z,9.70
2023-10-01T12:02:33.745Z,9.10
2023-10-01T12:03:33.849Z,9.90
2023-10-01T12:04:33.807Z,9.00
2023-10-01T12:05:33.706Z,9.40
2023-10-01T12:06:33.691Z,11.40
2023-10-01T12:07:34.408Z,7.40
2023-10-01T12:08:33.667Z,8.70
2023-10-01T12:09:33.656Z,7.90
2023-10-01T12:10:34.080Z,12.20
2023-10-01T12:11:33.631Z,7.10
2023-10-01T12:12:33.644Z,9.10
2023-10-01T12:13:33.630Z,8.10
2023-10-01T12:14:33.676Z,7.00
2023-10-01T12:15:33.609Z,11.20
2023-10-01T12:16:33.627Z,8.40
2023-10-01T12:17:33.563Z,7.10
2023-10-01T12:18:34.802Z,8.30
2023-10-01T12:19:33.586Z,8.70
2023-10-01T12:20:33.512Z,10.80
2023-10-01T12:21:33.515Z,11.00
2023-10-01T12:22:33.556Z,9.40
2023-10-01T12:23:33.553Z,8.70
2023-10-01T12:24:33.480Z,8.90
2023-10-01T12:25:33.506Z,10.20
2023-10-01T12:26:33.460Z,9.30
2023-10-01T12:27:33.484Z,8.20
2023-10-01T12:28:33.458Z,8.40
2023-10-01T12:29:33.499Z,8.30
2023-10-01T12:30:33.390Z,8.60
2023-10-01T12:31:33.467Z,8.00
2023-10-01T12:32:33.394Z,8.70
2023-10-01T12:33:33.367Z,8.20
2023-10-01T12:34:33.425Z,12.40
2023-10-01T12:35:33.370Z,10.50
2023-10-01T12:36:34.170Z,8.30
2023-10-01T12:37:33.344Z,11.10
2023-10-01T12:38:33.311Z,10.90
2023-10-01T12:40:33.361Z,10.10
2023-10-01T12:41:33.349Z,10.90
2023-10-01T12:42:33.275Z,10.40
2023-10-01T12:43:33.283Z,9.60
2023-10-01T12:44:33.257Z,9.80
2023-10-01T12:45:33.251Z,9.60
2023-10-01T12:46:33.298Z,9.60
2023-10-01T12:47:33.225Z,10.60
2023-10-01T12:48:33.234Z,11.40
2023-10-01T12:49:33.342Z,11.20
2023-10-01T12:50:33.158Z,11.50
2023-10-01T12:51:33.161Z,9.50
2023-10-01T12:52:33.176Z,12.30
2023-10-01T12:53:33.139Z,9.50
2023-10-01T12:54:33.123Z,9.10
2023-10-01T12:55:33.153Z,11.10
2023-10-01T12:56:33.118Z,9.30
2023-10-01T12:57:33.078Z,12.30
2023-10-01T12:58:33.122Z,12.40
2023-10-01T12:59:33.071Z,10.30
2023-10-01T13:00:33.041Z,12.50
2023-10-01T13:01:33.362Z,11.20
2023-10-01T13:02:33.100Z,11.00
2023-10-01T13:03:33.166Z,11.90
2023-10-01T13:04:33.068Z,10.10
2023-10-01T13:05:32.991Z,10.40
2023-10-01T13:06:32.987Z,11.40
2023-10-01T13:07:32.979Z,12.60
2023-10-01T13:08:32.957Z,11.60
2023-10-01T13:09:32.982Z,12.90
2023-10-01T13:10:33.075Z,11.50
2023-10-01T13:11:32.924Z,12.10
2023-10-01T13:12:32.913Z,11.10
2023-10-01T13:13:32.934Z,10.50
2023-10-01T13:15:32.930Z,12.90